Time;durP1;ratioP1;P1;durP2;ratioP2;P2;SDS_P1;SDS_P2;PMS_P1;PMS_P2;Temp;Humidity;BMP_temperature;BMP_pressure;BME280_temperature;BME280_humidity;BME280_pressure;Samples;Min_cycle;Max_cycle;Signal;HPM_P1;HPM_P2
2022/10/18 00:01:00;;;;;;;13.35;4.78;;;17.60;99.90;;;;;;4999424;28;20025;-73
2022/10/18 00:03:26;;;;;;;13.23;4.75;;;17.70;99.90;;;;;;4999420;28;20029;-73
2022/10/18 00:05:52;;;;;;;9.68;4.70;;;17.70;99.90;;;;;;4998923;28;20038;-73
2022/10/18 00:08:18;;;;;;;11.10;5.15;;;17.70;99.90;;;;;;4999033;28;20033;-73
2022/10/18 00:10:44;;;;;;;8.25;4.70;;;17.60;99.90;;;;;;5016459;28;20026;-73
2022/10/18 00:13:10;;;;;;;12.68;5.40;;;17.50;99.90;;;;;;4999149;28;20036;-73
2022/10/18 00:15:35;;;;;;;13.35;4.57;;;17.50;99.90;;;;;;4999542;28;20109;-73
2022/10/18 00:18:01;;;;;;;8.13;4.60;;;17.40;99.90;;;;;;4999063;28;20028;-73
2022/10/18 00:20:27;;;;;;;18.42;4.60;;;17.40;99.90;;;;;;4999495;28;20048;-73
2022/10/18 00:22:53;;;;;;;10.63;5.40;;;17.40;99.90;;;;;;4998818;28;20056;-73
2022/10/18 00:25:18;;;;;;;17.00;5.72;;;17.40;99.90;;;;;;4998987;28;20076;-73
2022/10/18 00:27:44;;;;;;;11.00;4.60;;;17.40;99.90;;;;;;4998718;28;20025;-73
2022/10/18 00:30:10;;;;;;;9.82;4.65;;;17.40;99.90;;;;;;5015228;28;20022;-73
2022/10/18 00:32:40;;;;;;;14.35;5.25;;;17.40;99.90;;;;;;4998652;28;20057;-72
2022/10/18 00:35:07;;;;;;;16.08;5.32;;;17.40;99.90;;;;;;5015686;28;20038;-73
2022/10/18 00:37:33;;;;;;;12.15;5.18;;;17.40;99.90;;;;;;4998430;28;20019;-73
2022/10/18 00:39:59;;;;;;;12.27;4.47;;;17.30;99.90;;;;;;4999281;28;20079;-72
2022/10/18 00:42:29;;;;;;;10.68;4.85;;;17.30;99.90;;;;;;5015945;28;20101;-72
2022/10/18 00:45:05;;;;;;;10.65;5.50;;;17.30;99.90;;;;;;4998329;28;20037;-72
2022/10/18 00:47:31;;;;;;;10.68;4.40;;;17.30;99.90;;;;;;5015886;28;20022;-72
2022/10/18 00:50:00;;;;;;;12.23;4.88;;;17.30;99.90;;;;;;4998287;28;20025;-72
2022/10/18 00:52:39;;;;;;;11.63;5.25;;;17.30;99.90;;;;;;4998213;28;20113;-72
2022/10/18 00:55:06;;;;;;;13.93;4.78;;;17.20;99.90;;;;;;5015574;28;20065;-73
2022/10/18 00:57:32;;;;;;;11.52;4.80;;;17.30;99.90;;;;;;4998625;28;20046;-73
2022/10/18 00:59:58;;;;;;;8.85;6.03;;;17.30;99.90;;;;;;5015668;28;20109;-73
2022/10/18 01:02:25;;;;;;;11.35;5.18;;;17.30;99.90;;;;;;4998138;28;20112;-73
2022/10/18 01:04:50;;;;;;;9.38;4.95;;;17.20;99.90;;;;;;5015595;28;20033;-73
2022/10/18 01:07:35;;;;;;;13.90;5.22;;;17.20;99.90;;;;;;4997960;28;20030;-73
2022/10/18 01:10:15;;;;;;;14.50;5.20;;;17.10;99.90;;;;;;4997924;28;20030;-73
2022/10/18 01:13:11;;;;;;;8.70;5.10;;;17.10;99.90;;;;;;5015712;28;20032;-73
2022/10/18 01:15:57;;;;;;;11.20;4.97;;;17.00;99.90;;;;;;5015499;28;20033;-73
2022/10/18 01:18:40;;;;;;;17.63;6.85;;;16.90;99.90;;;;;;5015301;28;20022;-73
2022/10/18 01:21:36;;;;;;;15.00;6.03;;;17.00;99.90;;;;;;5015488;28;20144;-72
2022/10/18 01:24:48;;;;;;;19.30;5.28;;;17.00;99.90;;;;;;4997922;28;20026;-72
2022/10/18 01:27:28;;;;;;;;;;;16.90;99.90;;;;;;4978574;28;20062;-72
2022/10/18 01:30:25;;;;;;;13.55;5.25;;;16.90;99.90;;;;;;5015345;28;19937;-72
2022/10/18 01:32:53;;;;;;;13.88;5.28;;;16.80;99.90;;;;;;5015193;28;20076;-73
2022/10/18 01:35:25;;;;;;;14.23;6.35;;;16.90;99.90;;;;;;4998081;28;20030;-73
2022/10/18 01:37:52;;;;;;;9.95;5.85;;;17.00;99.90;;;;;;5014937;28;20028;-73
2022/10/18 01:40:21;;;;;;;13.55;6.07;;;17.00;99.90;;;;;;4996889;28;20033;-73
2022/10/18 01:42:51;;;;;;;12.80;6.65;;;17.10;99.90;;;;;;4997597;28;20072;-73
2022/10/18 01:45:19;;;;;;;11.25;6.05;;;17.10;99.90;;;;;;4997136;28;20030;-73
2022/10/18 01:47:46;;;;;;;11.75;6.35;;;17.10;99.90;;;;;;4997176;28;20033;-73
2022/10/18 01:50:12;;;;;;;13.23;7.07;;;17.10;99.90;;;;;;5014608;28;20038;-73
2022/10/18 01:52:48;;;;;;;12.90;6.53;;;17.00;99.90;;;;;;4997046;28;20026;-73
2022/10/18 01:55:14;;;;;;;11.18;6.05;;;17.00;99.90;;;;;;5014481;28;20056;-73
2022/10/18 01:57:51;;;;;;;10.40;5.78;;;17.10;99.90;;;;;;4997491;28;20022;-73
2022/10/18 02:00:32;;;;;;;14.13;5.65;;;17.20;99.90;;;;;;4996949;28;20539;-73
2022/10/18 02:03:05;;;;;;;12.43;6.95;;;17.20;99.90;;;;;;4997697;28;20022;-73
2022/10/18 02:05:51;;;;;;;15.10;6.07;;;17.10;99.90;;;;;;5014591;28;20080;-72
2022/10/18 02:08:26;;;;;;;11.30;5.40;;;17.10;99.90;;;;;;5014758;28;20032;-72
2022/10/18 02:11:08;;;;;;;15.38;6.63;;;17.10;99.90;;;;;;4997079;28;20037;-74
2022/10/18 02:13:45;;;;;;;18.42;6.38;;;17.20;99.90;;;;;;4997008;28;20032;-74
2022/10/18 02:16:18;;;;;;;15.43;6.45;;;17.20;99.90;;;;;;4997159;28;20053;-74
2022/10/18 02:18:50;;;;;;;15.85;5.93;;;17.20;99.90;;;;;;5014151;28;20026;-74
2022/10/18 02:21:18;;;;;;;17.45;6.53;;;17.10;99.90;;;;;;4996592;28;20026;-74
2022/10/18 02:23:47;;;;;;;12.55;6.28;;;17.00;99.90;;;;;;4996652;28;20042;-74
2022/10/18 02:26:14;;;;;;;16.15;6.95;;;17.10;99.90;;;;;;5013984;28;20022;-74
2022/10/18 02:28:40;;;;;;;22.75;6.95;;;17.20;99.90;;;;;;4997301;28;20385;-74
2022/10/18 02:31:34;;;;;;;12.63;6.10;;;17.30;99.90;;;;;;4996645;28;20026;-74
2022/10/18 02:34:07;;;;;;;14.20;6.32;;;17.30;99.90;;;;;;4996337;28;20034;-74
2022/10/18 02:36:37;;;;;;;16.90;6.63;;;17.30;99.90;;;;;;5013855;28;20052;-74
2022/10/18 02:39:10;;;;;;;15.77;7.27;;;17.40;99.90;;;;;;5014268;28;20018;-74
2022/10/18 02:41:36;;;;;;;11.55;6.57;;;17.30;99.90;;;;;;4997122;28;20265;-74
2022/10/18 02:44:01;;;;;;;18.95;7.43;;;17.30;99.90;;;;;;5013831;28;20076;-74
2022/10/18 02:46:27;;;;;;;18.38;7.72;;;17.30;99.90;;;;;;4996402;28;20022;-74
2022/10/18 02:48:52;;;;;;;12.38;6.70;;;17.20;99.90;;;;;;5013755;28;20105;-74
2022/10/18 02:51:18;;;;;;;14.00;6.75;;;17.20;99.90;;;;;;4995517;28;20029;-74
2022/10/18 02:53:44;;;;;;;18.00;7.40;;;17.10;99.90;;;;;;4995942;28;20022;-74
2022/10/18 02:56:09;;;;;;;11.18;7.55;;;16.90;99.90;;;;;;4996701;28;20030;-74
2022/10/18 02:58:35;;;;;;;9.95;6.60;;;16.90;99.90;;;;;;4995967;28;20018;-74
2022/10/18 03:01:00;;;;;;;13.60;6.95;;;17.00;99.90;;;;;;4996061;28;20018;-74
2022/10/18 03:03:26;;;;;;;13.75;6.30;;;17.10;99.90;;;;;;4996896;28;20026;-72
2022/10/18 03:05:52;;;;;;;12.95;7.45;;;17.10;99.90;;;;;;4995829;28;20125;-73
2022/10/18 03:08:18;;;;;;;11.20;7.15;;;17.10;99.90;;;;;;4996027;28;20030;-73
2022/10/18 03:10:45;;;;;;;17.13;7.40;;;17.10;99.90;;;;;;5013508;28;20053;-73
2022/10/18 03:13:10;;;;;;;20.33;7.80;;;17.10;99.90;;;;;;4995898;28;20026;-72
2022/10/18 03:15:36;;;;;;;17.42;7.25;;;17.10;99.90;;;;;;4995725;28;20030;-72
2022/10/18 03:18:01;;;;;;;14.88;7.97;;;17.10;99.90;;;;;;4996124;28;20018;-72
2022/10/18 03:20:27;;;;;;;14.68;9.07;;;17.00;99.90;;;;;;5013652;28;20037;-72
2022/10/18 03:22:52;;;;;;;15.63;8.20;;;17.00;99.90;;;;;;5014311;28;20057;-74
2022/10/18 03:25:18;;;;;;;12.75;6.53;;;17.10;99.90;;;;;;5014936;28;20022;-74
2022/10/18 03:27:43;;;;;;;14.82;7.13;;;17.20;99.90;;;;;;5015391;28;20022;-74
2022/10/18 03:30:10;;;;;;;17.27;6.78;;;17.30;99.90;;;;;;4998296;28;20084;-74
2022/10/18 03:32:37;;;;;;;15.95;6.60;;;17.30;99.90;;;;;;4997848;28;20030;-74
2022/10/18 03:35:04;;;;;;;17.75;7.90;;;17.30;99.90;;;;;;5015166;28;20073;-74
2022/10/18 03:37:30;;;;;;;16.55;8.65;;;17.40;99.90;;;;;;4998846;28;20030;-74
2022/10/18 03:39:55;;;;;;;13.35;8.25;;;17.40;99.90;;;;;;4997909;28;20108;-74
2022/10/18 03:42:21;;;;;;;15.70;9.00;;;17.40;99.90;;;;;;4998200;28;20053;-74
2022/10/18 03:44:46;;;;;;;16.08;6.25;;;17.40;99.90;;;;;;4998282;28;20033;-74
2022/10/18 03:47:12;;;;;;;15.80;7.55;;;17.40;99.90;;;;;;4998183;28;20040;-74
2022/10/18 03:49:37;;;;;;;11.50;6.63;;;17.40;99.90;;;;;;5015112;28;20037;-74
2022/10/18 03:52:03;;;;;;;11.57;6.50;;;17.40;99.90;;;;;;4998011;28;20060;-74
2022/10/18 03:54:57;;;;;;;12.77;7.00;;;17.30;99.90;;;;;;5014614;28;20097;-74
2022/10/18 03:57:23;;;;;;;15.00;7.43;;;17.30;99.90;;;;;;5034821;23;20037;-69
2022/10/18 03:59:49;;;;;;;11.55;6.30;;;17.30;99.90;;;;;;5011865;28;20080;-70
2022/10/18 04:02:14;;;;;;;16.17;7.28;;;17.30;99.90;;;;;;5011867;28;20048;-70
2022/10/18 04:04:39;;;;;;;8.43;5.82;;;17.20;99.90;;;;;;4998956;28;20092;-70
2022/10/18 04:07:05;;;;;;;20.52;7.93;;;17.00;99.90;;;;;;4999095;28;20026;-70
2022/10/18 04:09:31;;;;;;;12.18;7.13;;;16.90;99.90;;;;;;5015843;28;20026;-70
2022/10/18 04:11:56;;;;;;;12.30;7.15;;;17.00;99.90;;;;;;5016588;28;20066;-69
2022/10/18 04:14:22;;;;;;;13.85;8.07;;;17.00;99.90;;;;;;5015923;28;20029;-72
2022/10/18 04:16:47;;;;;;;17.05;6.85;;;16.80;99.90;;;;;;4999907;28;20090;-72
2022/10/18 04:19:13;;;;;;;15.15;7.65;;;16.80;99.90;;;;;;5000586;28;20022;-72
2022/10/18 04:21:38;;;;;;;15.10;7.32;;;16.70;99.90;;;;;;5006855;28;20118;-70
2022/10/18 04:24:04;;;;;;;14.18;7.50;;;16.70;99.90;;;;;;4998855;28;20026;-70
2022/10/18 04:26:30;;;;;;;14.30;7.78;;;16.70;99.90;;;;;;5016521;28;20072;-70
2022/10/18 04:28:55;;;;;;;16.70;7.88;;;16.70;99.90;;;;;;4998870;28;20087;-70
2022/10/18 04:31:21;;;;;;;17.13;8.48;;;16.70;99.90;;;;;;4998658;28;20030;-70
2022/10/18 04:33:46;;;;;;;13.95;7.32;;;16.80;99.90;;;;;;5016275;28;20034;-70
2022/10/18 04:36:12;;;;;;;15.80;7.20;;;16.70;99.90;;;;;;4999069;28;20036;-70
2022/10/18 04:38:37;;;;;;;12.18;6.50;;;16.60;99.90;;;;;;4998544;28;20030;-70
2022/10/18 04:41:03;;;;;;;12.75;6.63;;;16.60;99.90;;;;;;4998883;28;20030;-70
2022/10/18 04:43:29;;;;;;;16.40;8.35;;;16.50;99.90;;;;;;5016578;28;20138;-70
2022/10/18 04:45:54;;;;;;;12.15;7.45;;;16.60;99.90;;;;;;4998545;28;20025;-70
2022/10/18 04:48:20;;;;;;;13.05;7.20;;;16.60;99.90;;;;;;4998794;28;20033;-70
2022/10/18 04:50:49;;;;;;;14.38;7.93;;;16.70;99.90;;;;;;5017140;28;20036;-72
2022/10/18 04:53:16;;;;;;;10.27;6.60;;;16.70;99.90;;;;;;4998944;28;20026;-72
2022/10/18 04:55:44;;;;;;;13.77;7.88;;;16.80;99.90;;;;;;4998594;28;20080;-72
2022/10/18 04:58:09;;;;;;;11.05;7.20;;;16.90;99.90;;;;;;4998877;28;20061;-72
2022/10/18 05:00:37;;;;;;;12.15;6.60;;;17.00;99.90;;;;;;4998767;28;20018;-72
2022/10/18 05:03:02;;;;;;;10.55;6.20;;;17.00;99.90;;;;;;4998482;28;20025;-70
2022/10/18 05:05:28;;;;;;;10.05;6.88;;;17.00;99.90;;;;;;5015693;28;20022;-70
2022/10/18 05:07:53;;;;;;;11.32;6.97;;;17.00;99.90;;;;;;4997924;28;20104;-70
2022/10/18 05:10:19;;;;;;;14.57;7.30;;;17.00;99.90;;;;;;4998092;28;20034;-70
2022/10/18 05:12:44;;;;;;;11.68;7.20;;;17.00;99.90;;;;;;5015394;28;20022;-70
2022/10/18 05:15:10;;;;;;;10.52;5.97;;;17.10;99.90;;;;;;5015007;28;20101;-71
2022/10/18 05:17:35;;;;;;;10.90;6.28;;;17.10;99.90;;;;;;4998248;28;20025;-71
2022/10/18 05:20:01;;;;;;;11.85;7.35;;;17.10;99.90;;;;;;4998929;28;20089;-71
2022/10/18 05:22:27;;;;;;;11.23;7.28;;;17.20;99.90;;;;;;4997863;28;20033;-71
2022/10/18 05:24:52;;;;;;;12.93;6.93;;;17.10;99.90;;;;;;4998028;28;20022;-71
2022/10/18 05:27:18;;;;;;;14.27;7.15;;;17.20;99.90;;;;;;5022536;28;20085;-71
2022/10/18 05:29:43;;;;;;;13.70;6.57;;;17.20;99.90;;;;;;4997597;28;20018;-71
2022/10/18 05:32:09;;;;;;;13.32;6.47;;;17.20;99.90;;;;;;5016087;28;20077;-71
2022/10/18 05:34:34;;;;;;;10.27;7.10;;;17.20;99.90;;;;;;5016727;28;20086;-71
2022/10/18 05:37:00;;;;;;;12.57;7.50;;;17.20;99.90;;;;;;4999064;28;20030;-71
2022/10/18 05:39:25;;;;;;;12.68;7.78;;;17.10;99.90;;;;;;5015433;28;20018;-71
2022/10/18 05:41:51;;;;;;;14.90;8.18;;;17.10;99.90;;;;;;4997391;28;20084;-71
2022/10/18 05:44:16;;;;;;;10.68;6.93;;;17.10;99.90;;;;;;4998137;28;20037;-71
2022/10/18 05:46:42;;;;;;;16.33;7.50;;;17.00;99.90;;;;;;4997587;28;20064;-71
2022/10/18 05:49:11;;;;;;;11.60;7.18;;;17.00;99.90;;;;;;5013570;28;20057;-71
2022/10/18 05:51:36;;;;;;;10.85;6.88;;;16.90;99.90;;;;;;5013565;28;20026;-70
2022/10/18 05:54:02;;;;;;;11.88;7.35;;;16.90;99.90;;;;;;5014667;28;20160;-70
2022/10/18 05:56:28;;;;;;;13.75;7.53;;;16.90;99.90;;;;;;4996860;28;20034;-70
2022/10/18 05:58:53;;;;;;;14.93;8.43;;;16.90;99.90;;;;;;4997080;28;20029;-70
2022/10/18 06:01:19;;;;;;;11.40;7.47;;;17.00;99.90;;;;;;4997084;28;20022;-70
2022/10/18 06:03:45;;;;;;;12.77;6.93;;;17.00;99.90;;;;;;4997513;28;20029;-70
2022/10/18 06:06:12;;;;;;;12.60;8.15;;;17.00;99.90;;;;;;4996850;28;20145;-70
2022/10/18 06:08:39;;;;;;;15.23;7.57;;;16.90;99.90;;;;;;4996843;28;20045;-70
2022/10/18 06:11:06;;;;;;;13.23;6.97;;;16.90;99.90;;;;;;4996902;28;20120;-70
2022/10/18 06:13:32;;;;;;;14.75;7.68;;;16.80;99.90;;;;;;5014738;28;20115;-69
2022/10/18 06:15:58;;;;;;;12.02;7.50;;;16.80;99.90;;;;;;5014297;28;20045;-69
2022/10/18 06:18:23;;;;;;;14.10;8.73;;;16.80;99.90;;;;;;5014874;28;20022;-68
2022/10/18 06:20:54;;;;;;;13.43;8.13;;;16.80;99.90;;;;;;5014310;28;20033;-68
2022/10/18 06:23:20;;;;;;;14.18;7.70;;;16.80;99.90;;;;;;5013624;28;20121;-68
2022/10/18 06:25:45;;;;;;;14.77;7.35;;;16.80;99.90;;;;;;5012862;28;20050;-71
2022/10/18 06:28:11;;;;;;;16.13;7.65;;;16.70;99.90;;;;;;4998032;28;20026;-71
2022/10/18 06:30:36;;;;;;;12.55;7.43;;;16.70;99.90;;;;;;5014759;28;20030;-71
2022/10/18 06:33:02;;;;;;;12.77;7.68;;;16.70;99.90;;;;;;5015269;28;20037;-72
2022/10/18 06:35:27;;;;;;;14.88;8.02;;;16.70;99.90;;;;;;4997695;28;20049;-71
2022/10/18 06:37:53;;;;;;;17.10;8.15;;;16.80;99.90;;;;;;4997112;28;20456;-72
2022/10/18 06:40:18;;;;;;;12.75;7.93;;;16.80;99.90;;;;;;4997673;28;20032;-72
2022/10/18 06:42:45;;;;;;;12.05;7.65;;;16.80;99.90;;;;;;4998390;28;20026;-73
2022/10/18 06:45:11;;;;;;;13.55;7.93;;;16.80;99.90;;;;;;5014537;28;20049;-73
2022/10/18 06:47:36;;;;;;;12.77;7.88;;;16.80;99.90;;;;;;5017662;28;20034;-72
2022/10/18 06:50:02;;;;;;;12.05;7.28;;;16.80;99.90;;;;;;5000481;28;20022;-72
2022/10/18 06:52:27;;;;;;;11.63;7.40;;;16.80;99.90;;;;;;4999921;28;20076;-69
2022/10/18 06:54:53;;;;;;;10.73;6.90;;;16.80;99.90;;;;;;4996802;28;20030;-69
2022/10/18 06:57:20;;;;;;;12.90;7.80;;;16.90;99.90;;;;;;5012297;28;20115;-69
2022/10/18 06:59:45;;;;;;;11.80;6.75;;;16.90;99.90;;;;;;4996841;28;20030;-69
2022/10/18 07:02:16;;;;;;;9.98;6.40;;;16.90;99.90;;;;;;5012658;28;20021;-69
2022/10/18 07:04:41;;;;;;;11.77;6.93;;;17.00;99.90;;;;;;4996347;28;20440;-70
2022/10/18 07:07:07;;;;;;;15.35;9.00;;;17.00;99.90;;;;;;5012882;28;20030;-69
2022/10/18 07:09:32;;;;;;;10.90;7.00;;;17.00;99.90;;;;;;5013481;28;20030;-69
2022/10/18 07:11:58;;;;;;;15.95;6.40;;;17.00;99.90;;;;;;4995990;28;20026;-68
2022/10/18 07:14:23;;;;;;;12.50;6.57;;;17.00;99.90;;;;;;4996129;28;20034;-68
2022/10/18 07:16:49;;;;;;;10.48;5.75;;;17.00;99.90;;;;;;4995911;28;20022;-68
2022/10/18 07:19:15;;;;;;;12.55;6.70;;;17.00;99.90;;;;;;4995917;28;20507;-68
2022/10/18 07:21:40;;;;;;;13.77;6.90;;;17.00;99.90;;;;;;5012172;28;20065;-68
2022/10/18 07:24:06;;;;;;;12.73;6.60;;;17.00;99.90;;;;;;4996096;28;20044;-69
2022/10/18 07:26:33;;;;;;;11.95;6.70;;;16.90;99.90;;;;;;4995904;28;20021;-68
2022/10/18 07:29:08;;;;;;;11.85;6.80;;;16.90;99.90;;;;;;4996283;28;20033;-69
2022/10/18 07:31:34;;;;;;;12.77;6.40;;;16.80;99.90;;;;;;4995924;28;20076;-68
2022/10/18 07:34:02;;;;;;;12.77;6.70;;;16.90;99.90;;;;;;4996371;28;20029;-68
2022/10/18 07:36:27;;;;;;;11.57;5.25;;;16.80;99.90;;;;;;4995647;28;20037;-69
2022/10/18 07:38:53;;;;;;;10.27;5.97;;;16.70;99.90;;;;;;4998348;28;20428;-68
2022/10/18 07:41:20;;;;;;;13.13;6.72;;;16.80;99.90;;;;;;4999782;28;20081;-68
2022/10/18 07:43:49;;;;;;;13.20;6.90;;;16.80;99.90;;;;;;5000739;28;20045;-68
2022/10/18 07:46:15;;;;;;;13.00;5.55;;;16.80;99.90;;;;;;4999381;28;20026;-68
2022/10/18 07:48:41;;;;;;;9.43;4.90;;;16.70;99.90;;;;;;4999774;28;20037;-68
2022/10/18 07:51:06;;;;;;;8.65;5.10;;;16.60;99.90;;;;;;4999629;28;20540;-68
2022/10/18 07:53:33;;;;;;;11.60;5.07;;;16.70;99.90;;;;;;5016569;28;20026;-68
2022/10/18 07:56:04;;;;;;;11.80;5.80;;;16.70;99.90;;;;;;4999363;28;20037;-68
2022/10/18 07:58:33;;;;;;;5.78;3.97;;;16.70;99.90;;;;;;4999972;28;20029;-68
2022/10/18 08:01:06;;;;;;;9.52;4.22;;;16.70;99.90;;;;;;4999241;28;20033;-68
2022/10/18 08:03:32;;;;;;;7.13;4.15;;;16.70;99.90;;;;;;4999175;28;20060;-68
2022/10/18 08:05:58;;;;;;;6.68;4.35;;;16.80;99.90;;;;;;4999275;28;20514;-68
2022/10/18 08:08:24;;;;;;;7.63;4.25;;;16.80;99.90;;;;;;5016759;28;20026;-68
2022/10/18 08:10:50;;;;;;;8.93;4.18;;;16.90;99.90;;;;;;5016715;28;20030;-68
2022/10/18 08:13:16;;;;;;;9.55;5.05;;;16.80;99.90;;;;;;5016545;28;20068;-69
2022/10/18 08:15:42;;;;;;;9.57;5.22;;;16.90;99.90;;;;;;5015128;28;20057;-69
2022/10/18 08:18:07;;;;;;;10.10;5.35;;;16.90;99.90;;;;;;4999156;28;20029;-69
2022/10/18 08:20:35;;;;;;;11.25;5.43;;;16.90;99.90;;;;;;5016732;28;20018;-69
2022/10/18 08:23:02;;;;;;;11.68;4.70;;;16.90;99.90;;;;;;4999156;28;20111;-69
2022/10/18 08:25:28;;;;;;;11.38;4.55;;;16.90;99.90;;;;;;4999060;28;20068;-69
2022/10/18 08:27:54;;;;;;;8.55;4.95;;;16.90;99.90;;;;;;4998701;28;20053;-69
2022/10/18 08:30:19;;;;;;;6.82;3.88;;;16.90;99.90;;;;;;4998669;28;20032;-69
2022/10/18 08:32:45;;;;;;;8.93;4.18;;;16.80;99.90;;;;;;4999265;28;20033;-68
2022/10/18 08:35:10;;;;;;;9.45;4.75;;;16.90;99.90;;;;;;4999269;28;20033;-68
2022/10/18 08:37:36;;;;;;;8.43;4.18;;;17.00;99.90;;;;;;5015119;28;20018;-68
2022/10/18 08:40:02;;;;;;;7.32;3.92;;;17.00;99.90;;;;;;5015731;28;20492;-71
2022/10/18 08:42:44;;;;;;;13.25;4.75;;;17.00;99.90;;;;;;5003211;28;20021;-70
2022/10/18 08:45:12;;;;;;;13.85;5.90;;;17.10;99.90;;;;;;4999402;28;20022;-71
2022/10/18 08:47:47;;;;;;;11.63;5.18;;;17.10;99.90;;;;;;5016106;28;20033;-70
2022/10/18 08:50:17;;;;;;;14.70;4.88;;;17.10;99.90;;;;;;4998124;28;20026;-70
2022/10/18 08:52:57;;;;;;;11.05;4.60;;;17.10;99.90;;;;;;5015972;28;20021;-71
2022/10/18 08:55:29;;;;;;;9.50;4.68;;;17.10;99.90;;;;;;5015897;28;20033;-71
2022/10/18 08:57:58;;;;;;;11.40;4.43;;;17.20;99.90;;;;;;5016048;28;20029;-71
2022/10/18 09:00:29;;;;;;;9.52;4.13;;;17.20;99.90;;;;;;4998595;28;20052;-71
2022/10/18 09:03:03;;;;;;;10.27;4.47;;;17.10;99.90;;;;;;4999002;28;20018;-70
2022/10/18 09:05:40;;;;;;;8.57;3.90;;;17.30;99.90;;;;;;5014306;28;20034;-70
2022/10/18 09:08:14;;;;;;;9.27;3.78;;;17.20;99.90;;;;;;5015686;28;20037;-71
2022/10/18 09:11:17;;;;;;;10.48;5.05;;;17.20;99.90;;;;;;5014358;28;20037;-70
2022/10/18 09:14:19;;;;;;;6.40;4.13;;;17.30;99.90;;;;;;5016553;28;20037;-70
2022/10/18 09:16:54;;;;;;;6.97;3.55;;;17.30;99.90;;;;;;4997770;28;20033;-70
2022/10/18 09:19:38;;;;;;;9.93;4.10;;;17.30;99.90;;;;;;5014100;28;20018;-70
2022/10/18 09:22:17;;;;;;;4.80;2.90;;;17.40;99.90;;;;;;5015625;28;20072;-71
2022/10/18 09:25:00;;;;;;;5.90;3.42;;;17.30;99.90;;;;;;4998683;28;20061;-71
2022/10/18 09:27:46;;;;;;;6.15;3.53;;;17.40;99.90;;;;;;4997672;28;20113;-70
2022/10/18 09:30:21;;;;;;;7.05;3.15;;;17.40;99.90;;;;;;5014340;28;20033;-70
2022/10/18 09:33:28;;;;;;;8.00;3.10;;;17.30;99.90;;;;;;5013825;28;20030;-70
2022/10/18 09:35:58;;;;;;;6.60;2.70;;;17.30;99.90;;;;;;5014348;28;20037;-70
2022/10/18 09:38:45;;;;;;;7.22;3.08;;;17.40;99.90;;;;;;4998162;28;20026;-70
2022/10/18 09:41:23;;;;;;;4.45;1.85;;;17.40;99.90;;;;;;4998391;28;20065;-70
2022/10/18 09:44:14;;;;;;;4.15;2.67;;;17.40;99.90;;;;;;5014954;28;20105;-70
2022/10/18 09:46:49;;;;;;;3.83;2.13;;;17.40;99.90;;;;;;4998266;28;20018;-70
2022/10/18 09:49:25;;;;;;;4.70;3.17;;;17.50;99.90;;;;;;5021152;28;20121;-70
2022/10/18 09:51:53;;;;;;;2.75;2.03;;;17.50;99.90;;;;;;5014748;28;20026;-70
2022/10/18 09:54:45;;;;;;;4.97;2.33;;;17.50;99.90;;;;;;5014635;28;20037;-70
2022/10/18 09:57:31;;;;;;;3.20;2.45;;;17.50;99.90;;;;;;5013459;28;20036;-70
2022/10/18 09:59:58;;;;;;;4.80;2.33;;;17.50;99.90;;;;;;4997058;28;20025;-70
2022/10/18 10:02:24;;;;;;;6.32;3.42;;;17.50;99.90;;;;;;4997537;28;20017;-70
2022/10/18 10:04:53;;;;;;;5.78;3.00;;;17.70;99.90;;;;;;4997244;28;20025;-70
2022/10/18 10:07:33;;;;;;;3.65;2.65;;;17.80;99.90;;;;;;4996861;28;20556;-70
2022/10/18 10:10:05;;;;;;;2.08;1.85;;;17.90;99.90;;;;;;4997248;28;20079;-70
2022/10/18 10:12:33;;;;;;;2.38;1.40;;;17.90;99.90;;;;;;5014039;28;20037;-70
2022/10/18 10:17:30;;;;;;;2.45;2.20;;;17.80;99.90;;;;;;5012917;28;20089;-73
2022/10/18 10:20:03;;;;;;;4.13;2.10;;;17.90;99.90;;;;;;5014261;28;20033;-73
2022/10/18 10:22:37;;;;;;;2.90;1.60;;;18.00;99.90;;;;;;5014298;28;20030;-73
2022/10/18 10:25:04;;;;;;;1.55;1.30;;;17.90;99.90;;;;;;4998085;28;20037;-73
2022/10/18 10:27:44;;;;;;;2.63;1.98;;;17.90;99.90;;;;;;5033819;28;20036;-73
2022/10/18 10:30:29;;;;;;;4.95;1.70;;;17.90;99.90;;;;;;5033839;28;20025;-73
2022/10/18 10:32:55;;;;;;;2.97;1.95;;;18.00;99.90;;;;;;5033700;28;20032;-73
2022/10/18 10:35:27;;;;;;;3.33;1.73;;;18.00;99.90;;;;;;5033695;28;20484;-74
2022/10/18 10:37:54;;;;;;;2.55;1.90;;;17.90;99.90;;;;;;5033202;28;20056;-73
2022/10/18 10:40:44;;;;;;;4.53;1.92;;;18.00;99.90;;;;;;5033635;28;20027;-73
2022/10/18 10:43:21;;;;;;;3.60;1.77;;;18.00;99.90;;;;;;5033529;28;20163;-73
2022/10/18 10:46:08;;;;;;;2.83;1.52;;;17.90;99.90;;;;;;5033104;28;20029;-73
2022/10/18 10:49:01;;;;;;;3.65;1.77;;;17.90;99.90;;;;;;5033856;28;20396;-73
2022/10/18 10:51:32;;;;;;;5.45;2.25;;;17.90;99.90;;;;;;5015857;28;20025;-73
2022/10/18 10:54:25;;;;;;;4.25;1.80;;;17.90;99.90;;;;;;5032271;28;20030;-73
2022/10/18 10:56:54;;;;;;;2.83;1.80;;;17.80;99.90;;;;;;5015033;28;20037;-73
2022/10/18 10:59:21;;;;;;;3.83;2.47;;;17.90;99.90;;;;;;5033210;28;20037;-73
2022/10/18 11:01:49;;;;;;;3.25;2.25;;;18.00;99.90;;;;;;5032252;28;20037;-73
2022/10/18 11:04:25;;;;;;;4.15;2.20;;;18.00;99.90;;;;;;5033174;28;20035;-73
2022/10/18 11:07:01;;;;;;;6.57;1.83;;;18.00;99.90;;;;;;5031931;28;20022;-73
2022/10/18 11:09:34;;;;;;;2.55;1.98;;;18.00;99.90;;;;;;5032106;28;20022;-73
2022/10/18 11:12:24;;;;;;;4.28;2.13;;;18.10;99.90;;;;;;5033029;28;20469;-73
2022/10/18 11:15:13;;;;;;;5.47;2.10;;;18.30;99.90;;;;;;5031918;28;20488;-73
2022/10/18 11:17:38;;;;;;;3.33;2.05;;;18.30;99.90;;;;;;5032825;28;20025;-74
2022/10/18 11:20:09;;;;;;;9.45;2.35;;;18.30;99.90;;;;;;5032015;28;20025;-74
2022/10/18 11:22:56;;;;;;;4.50;2.75;;;18.30;99.90;;;;;;5031914;28;20025;-74
2022/10/18 11:25:47;;;;;;;3.65;2.00;;;18.30;99.90;;;;;;5033358;28;20030;-74
2022/10/18 11:28:37;;;;;;;4.28;2.50;;;18.30;99.90;;;;;;5014605;28;20033;-73
2022/10/18 11:31:34;;;;;;;4.40;2.30;;;18.20;99.90;;;;;;5033043;28;20060;-73
2022/10/18 11:34:05;;;;;;;4.65;2.47;;;18.20;99.90;;;;;;5015410;28;20059;-73
2022/10/18 11:37:03;;;;;;;4.95;2.55;;;18.20;99.90;;;;;;5031641;28;20029;-73
2022/10/18 11:40:00;;;;;;;3.88;2.20;;;18.10;99.90;;;;;;5016281;28;20056;-73
2022/10/18 11:42:51;;;;;;;4.32;2.72;;;18.00;99.90;;;;;;5031760;28;20025;-73
2022/10/18 11:45:28;;;;;;;3.30;2.17;;;18.00;99.90;;;;;;5015791;28;20036;-73
2022/10/18 11:48:20;;;;;;;3.95;2.33;;;18.00;99.90;;;;;;5031734;28;20404;-73
2022/10/18 11:50:58;;;;;;;4.88;2.17;;;18.10;99.90;;;;;;5031557;28;20026;-73
2022/10/18 11:53:29;;;;;;;4.95;3.03;;;18.10;99.90;;;;;;5031909;28;20061;-73
2022/10/18 11:56:19;;;;;;;4.90;2.58;;;18.20;99.90;;;;;;5031428;28;20079;-73
2022/10/18 11:59:10;;;;;;;3.05;1.95;;;18.20;99.90;;;;;;5031575;28;20029;-73
2022/10/18 12:01:57;;;;;;;4.78;2.03;;;18.30;99.90;;;;;;5031505;28;20093;-73
2022/10/18 12:04:26;;;;;;;3.88;2.60;;;18.40;99.90;;;;;;5032854;28;20362;-73
2022/10/18 12:06:55;;;;;;;3.72;2.22;;;18.30;99.90;;;;;;5031868;28;20116;-73
2022/10/18 12:10:00;;;;;;;6.45;2.40;;;18.40;99.90;;;;;;5032462;28;20028;-73
2022/10/18 12:12:32;;;;;;;4.25;2.20;;;18.50;99.90;;;;;;4936938;29;20027;-73
2022/10/18 12:15:19;;;;;;;3.22;2.00;;;18.60;99.90;;;;;;4952633;29;20500;-73
2022/10/18 12:17:55;;;;;;;4.57;1.90;;;18.70;99.90;;;;;;4936856;29;20134;-73
2022/10/18 12:20:35;;;;;;;2.28;2.00;;;18.80;99.90;;;;;;4936622;29;20023;-73
2022/10/18 12:23:02;;;;;;;4.50;2.22;;;18.80;99.90;;;;;;4936698;29;20031;-73
2022/10/18 12:25:32;;;;;;;2.63;1.65;;;19.00;99.90;;;;;;4939324;29;20553;-73
2022/10/18 12:28:31;;;;;;;3.63;1.85;;;19.20;99.90;;;;;;4939927;29;20098;-73
2022/10/18 12:31:07;;;;;;;2.40;1.83;;;19.60;99.90;;;;;;4940117;29;20039;-73
2022/10/18 12:33:40;;;;;;;1.95;1.75;;;19.70;99.90;;;;;;4956469;29;20038;-73
2022/10/18 12:36:20;;;;;;;5.85;1.70;;;19.90;99.90;;;;;;4939716;29;20097;-73
2022/10/18 12:38:55;;;;;;;1.85;1.70;;;20.10;99.90;;;;;;4939738;29;20023;-73
2022/10/18 12:41:29;;;;;;;2.63;1.65;;;20.30;99.90;;;;;;4939708;29;20051;-73
2022/10/18 12:44:03;;;;;;;1.80;1.40;;;20.40;99.90;;;;;;5004346;28;20026;-73
2022/10/18 12:46:53;;;;;;;1.95;1.70;;;20.30;99.90;;;;;;5035865;28;20033;-73
2022/10/18 12:49:38;;;;;;;3.65;1.70;;;20.30;99.90;;;;;;5018098;28;20031;-73
2022/10/18 12:52:21;;;;;;;1.60;1.45;;;20.20;99.90;;;;;;5034803;28;20120;-73
2022/10/18 12:55:25;;;;;;;2.97;1.60;;;20.40;99.90;;;;;;5017930;28;20052;-73
2022/10/18 12:57:50;;;;;;;2.90;1.73;;;20.60;99.90;;;;;;5034264;28;20053;-73
2022/10/18 13:00:31;;;;;;;3.35;1.50;;;20.60;99.90;;;;;;5034275;28;20044;-73
2022/10/18 13:03:09;;;;;;;4.38;1.98;;;20.70;99.90;;;;;;5035477;28;20026;-71
2022/10/18 13:05:54;;;;;;;2.40;1.80;;;20.70;99.90;;;;;;5034460;28;20025;-71